UCFM

Manas

Manas, Kyrgyzstan
TAF UCFM 242240Z 2500/2524 12003G08MPS 6000 SCT050CB TEMPO 2500/2504 1000 BR FU FEW004 SCT010 BECMG 2505/2506 32003G08MPS 9999
Issued Valid From Valid To
Sep-24 @ 22:40 UTC
(an hour ago)
Sep-25 @ 00:00 UTC
(9 minutes ago)
Sep-26 @ 00:00 UTC
(in 24 hours)
Sep-25 @ 00:00 to Sep-25 @ 05:00
TAF UCFM 242240Z 2500/2524 12003G08MPS 6000 SCT050CB
Wind Visibility Clouds
120° at 6 knots
 Gusting to 16 knots
6,003 meters
  • Scattered at 5,000' AGL
Temporary Sep-25 @ 00:00 to Sep-25 @ 04:00
TEMPO 2500/2504 1000 BR FU FEW004 SCT010
Visibility Clouds Conditions
998 meters
  • Few at 400' AGL
  • Scattered at 1,000' AGL
  • Mist
  • Smoke
Becoming Sep-25 @ 05:00 to Sep-26 @ 00:00
BECMG 2505/2506 32003G08MPS 9999
Wind Visibility Clouds
320° at 6 knots
 Gusting to 16 knots
10,000+ meters
  • Scattered at 5,000' AGL
TAF UCFM 242240Z 2500/2524 12003G08MPS 6000 SCT050CB TEMPO 2500/2504 1000 BR FU FEW004 SCT010 BECMG 2505/2506 32003G08MPS 9999
Issued Sep-24 @ 22:40 UTC
(an hour ago)
Valid From Sep-25 @ 00:00 UTC
(9 minutes ago)
Valid To Sep-26 @ 00:00 UTC
(in 24 hours)
Sep-25 @ 00:00 - Sep-25 @ 05:00
Wind Visibility
120° at 6 knots
 Gusting to 16 knots
6,003 meters
Clouds
  • Scattered at 5,000' AGL
Temporary Sep-25 @ 00:00 - Sep-25 @ 04:00
Clouds
  • Few at 400' AGL
  • Scattered at 1,000' AGL
Conditions
  • Mist
  • Smoke
Becoming Sep-25 @ 05:00 - Sep-26 @ 00:00
Wind Visibility
320° at 6 knots
 Gusting to 16 knots
10,000+ meters
Clouds
  • Scattered at 5,000' AGL